createdAt,value
2022-08-27T00:00:21.862Z,4.52
2022-08-27T00:01:25.423Z,4.15
2022-08-27T00:02:28.279Z,4.43
2022-08-27T00:03:31.216Z,4.40
2022-08-27T00:04:34.160Z,3.95
2022-08-27T00:05:37.187Z,4.35
2022-08-27T00:06:41.682Z,5.36
2022-08-27T00:07:44.466Z,4.24
2022-08-27T00:08:47.728Z,4.61
2022-08-27T00:09:50.915Z,4.82
2022-08-27T00:10:53.783Z,4.21
2022-08-27T00:11:57.175Z,5.11
2022-08-27T00:13:07.034Z,5.08
2022-08-27T00:14:09.892Z,5.04
2022-08-27T00:15:13.384Z,4.53
2022-08-27T00:16:18.385Z,4.26
2022-08-27T00:17:20.869Z,3.89
2022-08-27T00:18:23.950Z,3.93
2022-08-27T00:19:26.724Z,4.30
2022-08-27T00:20:29.703Z,3.96
2022-08-27T00:21:32.467Z,3.59
2022-08-27T00:22:35.239Z,3.92
2022-08-27T00:23:38.114Z,3.35
2022-08-27T00:24:48.829Z,3.67
2022-08-27T00:25:45.396Z,3.49
2022-08-27T00:26:48.688Z,2.73
2022-08-27T00:27:51.564Z,3.55
2022-08-27T00:28:54.854Z,3.84
2022-08-27T00:29:57.818Z,2.65
2022-08-27T00:31:01.383Z,3.12
2022-08-27T00:32:04.548Z,3.01
2022-08-27T00:33:07.362Z,2.78
2022-08-27T00:34:13.157Z,2.96
2022-08-27T00:35:15.049Z,2.04
2022-08-27T00:36:18.039Z,1.79
2022-08-27T00:37:21.218Z,2.22
2022-08-27T00:38:24.212Z,1.94
2022-08-27T00:39:27.180Z,2.21
2022-08-27T00:40:30.253Z,2.88
2022-08-27T00:41:33.535Z,3.45
2022-08-27T00:42:36.416Z,2.61
2022-08-27T00:43:39.385Z,2.52
2022-08-27T00:44:43.081Z,2.39
2022-08-27T00:45:49.084Z,2.64
2022-08-27T00:46:51.804Z,2.31
2022-08-27T00:47:54.884Z,2.31
2022-08-27T00:48:58.473Z,2.58
2022-08-27T00:50:01.450Z,3.15
2022-08-27T00:51:04.018Z,3.05
2022-08-27T00:52:18.685Z,3.46
2022-08-27T00:53:21.980Z,3.70
2022-08-27T00:54:24.826Z,3.03
2022-08-27T00:55:28.671Z,3.18
2022-08-27T00:56:31.918Z,3.43
2022-08-27T00:57:42.982Z,3.35
2022-08-27T00:58:45.644Z,3.72
2022-08-27T00:59:49.140Z,4.44
2022-08-27T01:00:52.817Z,3.67
2022-08-27T01:01:55.787Z,3.63
2022-08-27T01:02:59.907Z,3.73
2022-08-27T01:04:09.498Z,3.85
2022-08-27T01:05:12.326Z,3.79
2022-08-27T01:06:16.241Z,3.45
2022-08-27T01:07:19.086Z,3.61
2022-08-27T01:08:22.098Z,3.54
2022-08-27T01:09:26.992Z,3.68
2022-08-27T01:10:35.288Z,3.76
2022-08-27T01:11:38.060Z,3.27
2022-08-27T01:12:40.977Z,3.17
2022-08-27T01:13:59.200Z,3.08
2022-08-27T01:14:57.136Z,3.01
2022-08-27T01:16:00.939Z,3.05
2022-08-27T01:17:03.909Z,3.33
2022-08-27T01:18:09.525Z,2.98
2022-08-27T01:19:12.448Z,2.94
2022-08-27T01:20:16.422Z,3.42
2022-08-27T01:21:19.502Z,3.21
2022-08-27T01:22:23.443Z,2.73
2022-08-27T01:24:52.256Z,3.32
2022-08-27T01:25:55.060Z,3.26
2022-08-27T01:26:58.136Z,3.07
2022-08-27T01:28:01.745Z,2.57
2022-08-27T01:29:07.787Z,2.24
2022-08-27T01:30:13.732Z,2.13
2022-08-27T01:31:17.003Z,1.78
2022-08-27T01:32:19.792Z,1.67
2022-08-27T01:33:24.927Z,1.74
2022-08-27T01:34:28.101Z,1.76
2022-08-27T01:35:30.966Z,1.75
2022-08-27T01:36:35.686Z,1.84
2022-08-27T01:37:40.670Z,1.60
2022-08-27T01:38:43.681Z,1.65
2022-08-27T01:39:46.873Z,1.38
2022-08-27T01:40:52.705Z,1.59
2022-08-27T01:41:56.823Z,1.85
2022-08-27T01:42:59.707Z,1.86
2022-08-27T01:44:06.884Z,1.78
2022-08-27T01:45:09.546Z,1.64
2022-08-27T01:46:12.472Z,1.66
2022-08-27T01:47:15.099Z,1.74
2022-08-27T01:48:18.164Z,1.25
2022-08-27T01:50:45.005Z,1.50
2022-08-27T01:51:47.598Z,1.51
2022-08-27T01:52:50.659Z,1.55
2022-08-27T01:53:53.628Z,1.65
2022-08-27T01:54:56.401Z,1.72
2022-08-27T01:55:59.589Z,1.57
2022-08-27T01:57:02.460Z,1.66
2022-08-27T01:58:05.952Z,1.81
2022-08-27T01:59:08.933Z,2.09
2022-08-27T02:00:12.621Z,1.62
2022-08-27T02:01:15.783Z,1.80
2022-08-27T02:02:18.992Z,1.85
2022-08-27T02:03:21.953Z,1.90
2022-08-27T02:04:25.045Z,1.60
2022-08-27T02:05:28.012Z,1.80
2022-08-27T02:06:31.298Z,1.54
2022-08-27T02:07:34.062Z,1.48
2022-08-27T02:08:37.042Z,1.60
2022-08-27T02:09:40.222Z,1.48
2022-08-27T02:10:43.203Z,1.40
2022-08-27T02:11:46.277Z,1.33
2022-08-27T02:12:49.259Z,1.45
2022-08-27T02:13:52.230Z,1.65
2022-08-27T02:14:54.801Z,1.58
2022-08-27T02:15:57.858Z,1.35
2022-08-27T02:17:00.656Z,1.45
2022-08-27T02:18:03.924Z,1.58
2022-08-27T02:19:06.614Z,1.98
2022-08-27T02:20:10.924Z,2.38
2022-08-27T02:21:13.589Z,1.88
2022-08-27T02:22:16.459Z,1.84
2022-08-27T02:23:19.131Z,1.79
2022-08-27T02:24:21.919Z,1.82
2022-08-27T02:25:24.785Z,1.51
2022-08-27T02:26:27.751Z,1.82
2022-08-27T02:27:33.901Z,1.94
2022-08-27T02:28:39.748Z,1.86
2022-08-27T02:29:42.782Z,1.78
2022-08-27T02:30:45.599Z,1.67
2022-08-27T02:31:48.660Z,1.75
2022-08-27T02:32:51.766Z,1.82
2022-08-27T02:33:54.434Z,1.75
2022-08-27T02:34:57.100Z,1.68
2022-08-27T02:35:59.867Z,1.47
2022-08-27T02:37:02.539Z,1.40
2022-08-27T02:38:05.227Z,1.48
2022-08-27T02:39:07.981Z,1.51
2022-08-27T02:40:10.801Z,1.65
2022-08-27T02:41:13.664Z,1.89
2022-08-27T02:42:16.406Z,1.72
2022-08-27T02:43:25.208Z,1.47
2022-08-27T02:44:23.695Z,1.74
2022-08-27T02:45:27.792Z,1.45
2022-08-27T02:46:30.775Z,1.94
2022-08-27T02:47:33.645Z,1.72
2022-08-27T02:48:37.035Z,1.59
2022-08-27T02:49:40.231Z,1.61
2022-08-27T02:50:53.873Z,1.81
2022-08-27T02:51:56.740Z,1.88
2022-08-27T02:53:08.449Z,1.91
2022-08-27T02:54:23.254Z,2.39
2022-08-27T02:55:27.890Z,2.24
2022-08-27T02:56:30.844Z,2.38
2022-08-27T02:57:36.687Z,2.47
2022-08-27T02:58:39.161Z,1.73
2022-08-27T03:01:17.344Z,1.93
2022-08-27T03:02:20.520Z,1.80
2022-08-27T03:03:23.760Z,1.84
2022-08-27T03:04:28.354Z,1.55
2022-08-27T03:05:31.442Z,1.46
2022-08-27T03:07:52.961Z,1.46
2022-08-27T03:08:55.722Z,1.98
2022-08-27T03:11:19.622Z,1.75
2022-08-27T03:12:22.981Z,1.52
2022-08-27T03:13:27.279Z,1.47
2022-08-27T03:14:32.420Z,1.22
2022-08-27T03:15:35.511Z,1.35
2022-08-27T03:17:59.085Z,2.07
2022-08-27T03:19:02.566Z,1.75
2022-08-27T03:20:05.335Z,1.76
2022-08-27T03:21:16.207Z,1.45
2022-08-27T03:22:20.868Z,2.08
2022-08-27T03:23:23.777Z,1.96
2022-08-27T03:24:27.267Z,2.21
2022-08-27T03:25:31.904Z,1.69
2022-08-27T03:26:36.506Z,1.44
2022-08-27T03:27:39.796Z,1.65
2022-08-27T03:28:43.584Z,1.85
2022-08-27T03:29:47.167Z,1.91
2022-08-27T03:30:50.578Z,1.66
2022-08-27T03:31:53.749Z,1.52
2022-08-27T03:32:56.732Z,1.65
2022-08-27T03:33:59.701Z,1.70
2022-08-27T03:35:02.366Z,1.35
2022-08-27T03:36:05.964Z,1.52
2022-08-27T03:37:08.728Z,1.56
2022-08-27T03:38:12.178Z,1.62
2022-08-27T03:39:15.809Z,1.59
2022-08-27T03:40:18.861Z,1.40
2022-08-27T03:41:21.873Z,1.55
2022-08-27T03:42:26.170Z,1.40
2022-08-27T03:43:29.775Z,1.27
2022-08-27T03:44:32.591Z,1.19
2022-08-27T03:45:40.915Z,1.28
2022-08-27T03:46:40.789Z,1.52
2022-08-27T03:47:45.775Z,1.41
2022-08-27T03:48:48.857Z,1.33
2022-08-27T03:49:53.452Z,1.67
2022-08-27T03:50:56.243Z,1.70
2022-08-27T03:51:59.412Z,1.32
2022-08-27T03:53:05.251Z,1.28
2022-08-27T03:54:08.328Z,1.21
2022-08-27T03:55:11.316Z,1.33
2022-08-27T03:56:14.808Z,1.32
2022-08-27T03:57:18.321Z,1.38
2022-08-27T03:58:21.083Z,1.05
2022-08-27T03:59:23.736Z,1.25
2022-08-27T04:00:26.922Z,1.30
2022-08-27T04:01:30.137Z,1.45
2022-08-27T04:02:32.993Z,1.32
2022-08-27T04:03:35.849Z,1.24
2022-08-27T04:04:39.020Z,1.22
2022-08-27T04:05:41.927Z,1.29
2022-08-27T04:06:46.225Z,1.16
2022-08-27T04:07:49.300Z,1.01
2022-08-27T04:08:52.059Z,1.06
2022-08-27T04:09:54.927Z,1.55
2022-08-27T04:10:57.824Z,1.52
2022-08-27T04:12:00.699Z,1.20
2022-08-27T04:13:03.458Z,1.32
2022-08-27T04:14:14.532Z,1.47
2022-08-27T04:15:11.057Z,1.27
2022-08-27T04:16:13.778Z,1.22
2022-08-27T04:17:16.726Z,1.08
2022-08-27T04:18:19.469Z,1.34
2022-08-27T04:19:26.898Z,1.33
2022-08-27T04:20:35.701Z,1.25
2022-08-27T04:21:31.981Z,1.28
2022-08-27T04:22:35.063Z,1.36
2022-08-27T04:23:37.956Z,1.49
2022-08-27T04:24:40.811Z,1.18
2022-08-27T04:25:43.603Z,1.27
2022-08-27T04:26:46.662Z,1.32
2022-08-27T04:27:49.742Z,1.42
2022-08-27T04:28:52.628Z,1.31
2022-08-27T04:29:55.392Z,1.82
2022-08-27T04:30:58.364Z,1.39
2022-08-27T04:32:01.338Z,0.97
2022-08-27T04:33:04.022Z,1.16
2022-08-27T04:34:07.006Z,1.21
2022-08-27T04:35:09.758Z,1.45
2022-08-27T04:36:12.545Z,1.77
2022-08-27T04:37:15.208Z,1.39
2022-08-27T04:38:19.821Z,1.47
2022-08-27T04:39:22.600Z,1.40
2022-08-27T04:40:25.628Z,1.65
2022-08-27T04:41:28.439Z,1.62
2022-08-27T04:42:32.052Z,1.53
2022-08-27T04:43:35.014Z,1.34
2022-08-27T04:44:37.894Z,1.99
2022-08-27T04:45:40.763Z,1.98
2022-08-27T04:46:48.396Z,2.18
2022-08-27T04:47:48.062Z,1.94
2022-08-27T04:48:51.020Z,1.79
2022-08-27T04:49:54.104Z,1.68
2022-08-27T04:50:56.987Z,1.32
2022-08-27T04:52:00.248Z,2.09
2022-08-27T04:53:03.432Z,2.34
2022-08-27T04:54:07.847Z,2.25
2022-08-27T04:55:11.124Z,1.88
2022-08-27T04:56:14.580Z,1.64
2022-08-27T04:57:17.587Z,1.15
2022-08-27T04:58:20.693Z,1.02
2022-08-27T04:59:23.767Z,1.47
2022-08-27T05:00:26.830Z,1.55
2022-08-27T05:01:29.936Z,1.29
2022-08-27T05:02:32.784Z,1.46
2022-08-27T05:03:35.764Z,1.51
2022-08-27T05:04:39.260Z,1.38
2022-08-27T05:05:42.806Z,1.58
2022-08-27T05:06:46.327Z,1.28
2022-08-27T05:07:50.058Z,1.25
2022-08-27T05:08:53.110Z,1.09
2022-08-27T05:09:55.886Z,1.20
2022-08-27T05:10:58.848Z,1.09
2022-08-27T05:12:02.239Z,1.22
2022-08-27T05:13:05.417Z,1.01
2022-08-27T05:14:08.600Z,1.19
2022-08-27T05:15:11.678Z,0.92
2022-08-27T05:16:14.918Z,1.22
2022-08-27T05:17:19.068Z,1.25
2022-08-27T05:18:22.657Z,1.39
2022-08-27T05:19:26.150Z,1.38
2022-08-27T05:20:29.430Z,1.31
2022-08-27T05:21:32.924Z,1.62
2022-08-27T05:22:35.999Z,1.61
2022-08-27T05:23:39.493Z,2.10
2022-08-27T05:24:45.015Z,2.05
2022-08-27T05:25:47.387Z,1.73
2022-08-27T05:26:50.569Z,2.07
2022-08-27T05:27:53.750Z,1.63
2022-08-27T05:28:56.636Z,1.61
2022-08-27T05:30:00.021Z,1.44
2022-08-27T05:31:03.132Z,1.48
2022-08-27T05:32:06.380Z,1.52
2022-08-27T05:33:09.457Z,1.83
2022-08-27T05:34:16.811Z,1.60
2022-08-27T05:35:17.148Z,1.67
2022-08-27T05:36:20.027Z,1.37
2022-08-27T05:37:23.326Z,1.39
2022-08-27T05:38:26.399Z,1.85
2022-08-27T05:39:29.168Z,1.62
2022-08-27T05:40:32.544Z,1.24
2022-08-27T05:41:35.420Z,1.14
2022-08-27T05:42:38.397Z,1.43
2022-08-27T05:43:41.417Z,1.38
2022-08-27T05:44:44.561Z,1.38
2022-08-27T05:45:47.849Z,1.37
2022-08-27T05:46:50.947Z,1.41
2022-08-27T05:47:54.312Z,1.31
2022-08-27T05:48:57.183Z,1.58
2022-08-27T05:50:00.469Z,1.84
2022-08-27T05:51:03.945Z,1.82
2022-08-27T05:52:06.829Z,1.26
2022-08-27T05:53:09.606Z,1.11
2022-08-27T05:54:12.589Z,1.39
2022-08-27T05:55:15.762Z,1.20
2022-08-27T05:56:18.648Z,1.23
2022-08-27T05:57:21.726Z,1.22
2022-08-27T05:58:25.429Z,2.11
2022-08-27T05:59:28.720Z,2.05
2022-08-27T06:00:31.779Z,1.82
2022-08-27T06:01:35.782Z,1.34
2022-08-27T06:02:39.114Z,1.18
2022-08-27T06:03:42.241Z,0.93
2022-08-27T06:04:45.320Z,1.89
2022-08-27T06:05:48.608Z,1.74
2022-08-27T06:06:52.103Z,1.43
2022-08-27T06:07:55.911Z,1.32
2022-08-27T06:08:59.295Z,1.52
2022-08-27T06:10:02.697Z,1.75
2022-08-27T06:11:05.246Z,1.67
2022-08-27T06:12:08.626Z,1.47
2022-08-27T06:13:11.491Z,1.27
2022-08-27T06:14:14.677Z,1.28
2022-08-27T06:15:17.860Z,1.55
2022-08-27T06:16:21.024Z,1.27
2022-08-27T06:17:24.328Z,1.75
2022-08-27T06:18:27.608Z,1.58
2022-08-27T06:19:34.061Z,1.25
2022-08-27T06:20:37.144Z,1.27
2022-08-27T06:21:40.430Z,1.53
2022-08-27T06:22:43.914Z,1.54
2022-08-27T06:23:47.102Z,1.63
2022-08-27T06:24:50.380Z,1.62
2022-08-27T06:25:53.665Z,1.55
2022-08-27T06:26:57.152Z,1.24
2022-08-27T06:28:03.288Z,1.48
2022-08-27T06:29:07.514Z,1.44
2022-08-27T06:30:12.729Z,1.48
2022-08-27T06:31:15.176Z,1.13
2022-08-27T06:32:18.286Z,1.32
2022-08-27T06:33:21.582Z,1.45
2022-08-27T06:34:24.870Z,1.42
2022-08-27T06:35:32.231Z,1.75
2022-08-27T06:36:32.868Z,1.95
2022-08-27T06:37:35.943Z,1.64
2022-08-27T06:38:39.226Z,1.56
2022-08-27T06:39:42.502Z,1.57
2022-08-27T06:40:46.104Z,1.54
2022-08-27T06:41:49.278Z,1.52
2022-08-27T06:42:52.252Z,1.42
2022-08-27T06:43:55.436Z,1.38
2022-08-27T06:44:58.730Z,1.25
2022-08-27T06:46:02.052Z,1.33
2022-08-27T06:47:05.087Z,1.20
2022-08-27T06:48:08.312Z,1.55
2022-08-27T06:49:11.042Z,1.51
2022-08-27T06:50:17.623Z,1.73
2022-08-27T06:51:18.252Z,1.97
2022-08-27T06:52:21.101Z,2.32
2022-08-27T06:53:24.291Z,2.08
2022-08-27T06:54:27.265Z,2.00
2022-08-27T06:55:33.126Z,1.63
2022-08-27T06:56:34.558Z,1.69
2022-08-27T06:57:37.720Z,1.82
2022-08-27T06:58:40.806Z,1.82
2022-08-27T06:59:43.882Z,1.53
2022-08-27T07:00:49.000Z,1.72
2022-08-27T07:01:51.605Z,1.76
2022-08-27T07:02:55.065Z,1.82
2022-08-27T07:03:58.451Z,1.67
2022-08-27T07:05:01.632Z,1.96
2022-08-27T07:06:04.710Z,1.94
2022-08-27T07:07:07.609Z,1.49
2022-08-27T07:08:10.624Z,1.68
2022-08-27T07:09:13.541Z,1.63
2022-08-27T07:10:16.730Z,1.92
2022-08-27T07:11:19.912Z,1.93
2022-08-27T07:12:23.191Z,2.02
2022-08-27T07:13:27.499Z,2.05
2022-08-27T07:14:35.434Z,2.37
2022-08-27T07:15:35.140Z,2.27
2022-08-27T07:16:40.891Z,2.20
2022-08-27T07:17:43.811Z,2.82
2022-08-27T07:18:46.904Z,3.15
2022-08-27T07:19:49.768Z,2.61
2022-08-27T07:20:52.644Z,3.28
2022-08-27T07:21:55.722Z,2.96
2022-08-27T07:22:58.489Z,2.77
2022-08-27T07:24:01.466Z,3.28
2022-08-27T07:25:04.357Z,3.25
2022-08-27T07:26:07.223Z,2.78
2022-08-27T07:27:10.223Z,2.71
2022-08-27T07:28:13.068Z,3.14
2022-08-27T07:29:15.739Z,2.75
2022-08-27T07:30:18.611Z,2.65
2022-08-27T07:31:21.745Z,3.10
2022-08-27T07:32:30.539Z,2.72
2022-08-27T07:33:28.972Z,2.39
2022-08-27T07:34:31.750Z,2.62
2022-08-27T07:35:35.029Z,2.60
2022-08-27T07:36:38.219Z,3.39
2022-08-27T07:37:41.197Z,3.86
2022-08-27T07:38:44.477Z,4.21
2022-08-27T07:39:48.794Z,4.00
2022-08-27T07:40:52.124Z,3.17
2022-08-27T07:41:55.375Z,3.53
2022-08-27T07:42:58.433Z,3.68
2022-08-27T07:44:01.721Z,2.85
2022-08-27T07:45:04.688Z,2.77
2022-08-27T07:46:09.208Z,2.91
2022-08-27T07:47:12.099Z,3.39
2022-08-27T07:48:15.480Z,3.45
2022-08-27T07:49:18.857Z,3.29
2022-08-27T07:50:22.135Z,3.54
2022-08-27T07:51:25.429Z,4.95
2022-08-27T07:52:28.504Z,5.04
2022-08-27T07:53:31.475Z,4.58
2022-08-27T07:54:34.970Z,4.13
2022-08-27T07:55:37.951Z,4.51
2022-08-27T07:56:41.022Z,4.02
2022-08-27T07:57:43.900Z,4.42
2022-08-27T07:58:47.082Z,4.32
2022-08-27T07:59:50.788Z,4.51
2022-08-27T08:00:53.661Z,4.85
2022-08-27T08:01:56.908Z,4.43
2022-08-27T08:03:00.191Z,4.80
2022-08-27T08:04:03.711Z,4.95
2022-08-27T08:05:07.105Z,5.04
2022-08-27T08:06:10.490Z,5.47
2022-08-27T08:07:13.574Z,5.15
2022-08-27T08:08:16.638Z,4.30
2022-08-27T08:09:19.827Z,3.50
2022-08-27T08:10:23.306Z,3.99
2022-08-27T08:11:26.593Z,4.68
2022-08-27T08:12:29.885Z,3.88
2022-08-27T08:13:33.470Z,3.21
2022-08-27T08:14:36.557Z,2.28
2022-08-27T08:15:40.140Z,1.90
2022-08-27T08:16:43.157Z,1.49
2022-08-27T08:17:46.401Z,1.33
2022-08-27T08:18:49.586Z,1.58
2022-08-27T08:20:15.455Z,1.66
2022-08-27T08:20:58.816Z,1.47
2022-08-27T08:22:05.595Z,1.55
2022-08-27T08:23:06.508Z,1.73
2022-08-27T08:24:11.122Z,1.65
2022-08-27T08:25:14.011Z,1.74
2022-08-27T08:26:17.500Z,1.69
2022-08-27T08:27:20.768Z,1.98
2022-08-27T08:28:23.962Z,1.81
2022-08-27T08:29:27.147Z,1.67
2022-08-27T08:30:31.341Z,1.66
2022-08-27T08:31:35.248Z,1.92
2022-08-27T08:32:38.420Z,1.63
2022-08-27T08:33:41.609Z,1.99
2022-08-27T08:34:44.786Z,2.12
2022-08-27T08:35:47.668Z,1.92
2022-08-27T08:36:55.150Z,1.96
2022-08-27T08:37:56.785Z,2.02
2022-08-27T08:38:59.761Z,2.02
2022-08-27T08:40:03.111Z,2.30
2022-08-27T08:41:06.543Z,2.24
2022-08-27T08:42:10.158Z,2.08
2022-08-27T08:43:12.906Z,2.22
2022-08-27T08:44:15.777Z,2.18
2022-08-27T08:45:18.546Z,2.33
2022-08-27T08:46:21.734Z,2.01
2022-08-27T08:47:24.504Z,2.08
2022-08-27T08:48:27.176Z,2.11
2022-08-27T08:49:30.257Z,2.22
2022-08-27T08:50:34.166Z,2.41
2022-08-27T08:51:37.226Z,2.07
2022-08-27T08:52:40.322Z,2.05
2022-08-27T08:53:43.280Z,2.16
2022-08-27T08:54:46.065Z,2.38
2022-08-27T08:55:48.827Z,2.38
2022-08-27T08:56:54.937Z,2.41
2022-08-27T08:57:56.117Z,2.57
2022-08-27T08:58:58.885Z,2.48
2022-08-27T09:00:02.305Z,2.77
2022-08-27T09:01:05.233Z,2.66
2022-08-27T09:02:11.382Z,2.52
2022-08-27T09:03:12.743Z,2.66
2022-08-27T09:04:15.898Z,2.75
2022-08-27T09:05:18.723Z,2.53
2022-08-27T09:06:21.784Z,2.62
2022-08-27T09:07:24.544Z,2.83
2022-08-27T09:08:40.453Z,2.53
2022-08-27T09:09:32.150Z,2.37
2022-08-27T09:10:35.121Z,2.17
2022-08-27T09:11:38.095Z,2.12
2022-08-27T09:12:41.277Z,2.25
2022-08-27T09:13:44.561Z,2.27
2022-08-27T09:14:47.538Z,2.23
2022-08-27T09:15:50.628Z,2.28
2022-08-27T09:16:56.723Z,2.57
2022-08-27T09:17:58.327Z,2.38
2022-08-27T09:19:01.185Z,2.70
2022-08-27T09:20:04.166Z,3.13
2022-08-27T09:21:08.786Z,2.50
2022-08-27T09:22:11.662Z,2.55
2022-08-27T09:23:14.639Z,2.42
2022-08-27T09:24:17.507Z,2.00
2022-08-27T09:25:21.159Z,2.26
2022-08-27T09:26:24.277Z,2.38
2022-08-27T09:27:27.365Z,2.54
2022-08-27T09:28:30.441Z,2.35
2022-08-27T09:29:33.831Z,2.57
2022-08-27T09:30:36.839Z,2.35
2022-08-27T09:31:39.576Z,2.48
2022-08-27T09:32:42.761Z,2.34
2022-08-27T09:33:56.201Z,2.43
2022-08-27T09:34:50.658Z,2.50
2022-08-27T09:35:53.734Z,2.23
2022-08-27T09:36:56.713Z,2.27
2022-08-27T09:37:59.789Z,2.15
2022-08-27T09:39:02.672Z,2.32
2022-08-27T09:40:05.791Z,2.35
2022-08-27T09:41:10.057Z,2.08
2022-08-27T09:42:12.727Z,2.35
2022-08-27T09:43:15.392Z,2.46
2022-08-27T09:44:18.266Z,4.02
2022-08-27T09:45:21.859Z,6.55
2022-08-27T09:46:24.708Z,6.26
2022-08-27T09:47:28.939Z,6.34
2022-08-27T09:48:32.023Z,6.05
2022-08-27T09:49:35.003Z,6.02
2022-08-27T09:50:42.977Z,6.34
2022-08-27T09:51:42.584Z,5.96
2022-08-27T09:52:45.360Z,6.05
2022-08-27T09:53:48.233Z,6.54
2022-08-27T09:54:52.647Z,6.22
2022-08-27T09:55:55.622Z,5.26
2022-08-27T09:56:58.702Z,5.63
2022-08-27T09:58:01.591Z,5.38
2022-08-27T09:59:04.863Z,5.27
2022-08-27T10:00:08.349Z,5.54
2022-08-27T10:01:11.673Z,5.64
2022-08-27T10:02:14.709Z,5.99
2022-08-27T10:03:17.994Z,5.58
2022-08-27T10:04:21.229Z,5.38
2022-08-27T10:05:24.053Z,4.88
2022-08-27T10:06:27.025Z,4.77
2022-08-27T10:07:29.805Z,4.56
2022-08-27T10:08:32.682Z,5.98
2022-08-27T10:09:35.346Z,5.77
2022-08-27T10:10:38.322Z,6.05
2022-08-27T10:11:42.731Z,5.86
2022-08-27T10:12:45.606Z,6.29
2022-08-27T10:13:48.480Z,6.65
2022-08-27T10:14:51.468Z,6.53
2022-08-27T10:15:54.124Z,6.71
2022-08-27T10:16:57.076Z,7.39
2022-08-27T10:18:00.183Z,6.97
2022-08-27T10:19:04.499Z,7.00
2022-08-27T10:20:07.373Z,7.58
2022-08-27T10:21:10.144Z,8.36
2022-08-27T10:22:13.628Z,7.47
2022-08-27T10:23:16.505Z,6.74
2022-08-27T10:24:19.272Z,6.92
2022-08-27T10:25:21.944Z,6.54
2022-08-27T10:26:24.511Z,5.95
2022-08-27T10:27:27.488Z,5.87
2022-08-27T10:28:30.474Z,6.24
2022-08-27T10:29:33.747Z,6.68
2022-08-27T10:30:36.733Z,6.47
2022-08-27T10:31:40.198Z,6.54
2022-08-27T10:32:43.504Z,7.12
2022-08-27T10:33:47.088Z,7.29
2022-08-27T10:34:50.782Z,7.59
2022-08-27T10:35:54.565Z,7.06
2022-08-27T10:36:58.378Z,7.64
2022-08-27T10:38:01.558Z,7.79
2022-08-27T10:39:04.330Z,8.75
2022-08-27T10:40:07.383Z,9.37
2022-08-27T10:41:10.078Z,8.97
2022-08-27T10:42:13.057Z,7.59
2022-08-27T10:43:15.828Z,8.92
2022-08-27T10:44:18.705Z,8.42
2022-08-27T10:45:30.826Z,9.31
2022-08-27T10:46:27.163Z,10.15
2022-08-27T10:47:30.299Z,9.91
2022-08-27T10:48:33.581Z,9.83
2022-08-27T10:49:36.772Z,10.04
2022-08-27T10:50:40.467Z,9.76
2022-08-27T10:51:43.434Z,10.17
2022-08-27T10:52:47.333Z,9.79
2022-08-27T10:53:51.847Z,8.31
2022-08-27T10:54:54.724Z,7.72
2022-08-27T10:55:57.801Z,8.08
2022-08-27T10:57:24.582Z,8.79
2022-08-27T10:58:05.801Z,8.99
2022-08-27T10:59:08.472Z,9.03
2022-08-27T11:00:11.244Z,9.26
2022-08-27T11:01:13.813Z,9.28
2022-08-27T11:02:16.875Z,9.31
2022-08-27T11:03:20.082Z,10.15
2022-08-27T11:04:23.174Z,9.56
2022-08-27T11:05:26.149Z,9.52
2022-08-27T11:06:29.113Z,9.08
2022-08-27T11:07:31.976Z,8.70
2022-08-27T11:08:34.749Z,9.39
2022-08-27T11:09:37.728Z,8.74
2022-08-27T11:10:40.808Z,8.73
2022-08-27T11:12:48.100Z,9.87
2022-08-27T11:13:50.968Z,10.79
2022-08-27T11:14:53.851Z,12.12
2022-08-27T11:15:56.507Z,12.14
2022-08-27T11:16:59.396Z,11.24
2022-08-27T11:18:02.263Z,11.26
2022-08-27T11:19:05.039Z,9.65
2022-08-27T11:20:08.425Z,10.65
2022-08-27T11:21:11.328Z,7.49
2022-08-27T11:22:14.869Z,7.81
2022-08-27T11:23:18.856Z,8.01
2022-08-27T11:24:21.862Z,7.48
2022-08-27T11:25:25.045Z,7.85
2022-08-27T11:26:28.232Z,5.28
2022-08-27T11:27:31.823Z,5.05
2022-08-27T11:28:35.208Z,4.02
2022-08-27T11:29:38.391Z,4.43
2022-08-27T11:30:43.363Z,4.41
2022-08-27T11:31:46.646Z,4.84
2022-08-27T11:32:49.826Z,7.18
2022-08-27T11:33:53.268Z,8.48
2022-08-27T11:34:56.752Z,8.15
2022-08-27T11:36:00.349Z,7.04
2022-08-27T11:37:03.236Z,6.01
2022-08-27T11:38:06.310Z,4.92
2022-08-27T11:39:09.221Z,4.49
2022-08-27T11:40:12.322Z,4.08
2022-08-27T11:41:15.331Z,4.97
2022-08-27T11:42:18.511Z,5.82
2022-08-27T11:43:21.697Z,6.02
2022-08-27T11:44:24.674Z,6.07
2022-08-27T11:45:27.858Z,6.67
2022-08-27T11:46:31.278Z,6.55
2022-08-27T11:47:34.525Z,6.41
2022-08-27T11:48:39.150Z,6.38
2022-08-27T11:49:42.114Z,5.75
2022-08-27T11:50:45.619Z,3.11
2022-08-27T11:51:49.410Z,4.05
2022-08-27T11:52:52.493Z,3.93
2022-08-27T11:53:56.080Z,3.35
2022-08-27T11:54:59.159Z,3.60
2022-08-27T11:56:02.551Z,4.03
2022-08-27T11:57:05.426Z,3.79
2022-08-27T11:58:08.782Z,4.29
2022-08-27T11:59:11.888Z,3.94
2022-08-27T12:00:14.970Z,3.67
2022-08-27T12:01:17.752Z,3.68
2022-08-27T12:02:20.812Z,3.85
2022-08-27T12:03:25.686Z,3.63
2022-08-27T12:04:28.962Z,3.75
2022-08-27T12:05:32.110Z,3.77
2022-08-27T12:06:35.598Z,3.30
2022-08-27T12:07:38.777Z,3.08
2022-08-27T12:08:41.963Z,2.90
2022-08-27T12:09:45.246Z,3.13
2022-08-27T12:10:48.842Z,2.86
2022-08-27T12:11:56.405Z,3.17
2022-08-27T12:13:00.700Z,3.20
2022-08-27T12:14:03.105Z,3.23
2022-08-27T12:15:05.862Z,2.95
2022-08-27T12:16:09.158Z,3.07
2022-08-27T12:17:12.113Z,3.27
2022-08-27T12:18:15.093Z,2.99
2022-08-27T12:19:18.069Z,4.02
2022-08-27T12:20:21.151Z,5.14
2022-08-27T12:21:24.342Z,5.11
2022-08-27T12:22:27.423Z,5.00
2022-08-27T12:23:30.904Z,5.13
2022-08-27T12:24:33.976Z,5.20
2022-08-27T12:25:37.364Z,5.05
2022-08-27T12:26:40.146Z,5.55
2022-08-27T12:27:43.427Z,5.48
2022-08-27T12:28:46.812Z,4.98
2022-08-27T12:29:49.801Z,5.02
2022-08-27T12:30:52.977Z,4.58
2022-08-27T12:31:56.351Z,5.19
2022-08-27T12:32:59.862Z,4.26
2022-08-27T12:34:03.339Z,4.09
2022-08-27T12:35:06.105Z,4.88
2022-08-27T12:36:09.597Z,4.55
2022-08-27T12:37:14.314Z,4.11
2022-08-27T12:38:17.700Z,3.91
2022-08-27T12:39:21.394Z,3.32
2022-08-27T12:40:24.771Z,3.47
2022-08-27T12:41:28.179Z,4.15
2022-08-27T12:42:31.453Z,3.77
2022-08-27T12:43:34.647Z,4.28
2022-08-27T12:44:37.920Z,4.03
2022-08-27T12:45:41.308Z,3.57
2022-08-27T12:46:44.648Z,3.78
2022-08-27T12:47:50.908Z,4.26
2022-08-27T12:48:52.185Z,3.94
2022-08-27T12:49:56.045Z,3.90
2022-08-27T12:50:59.157Z,4.15
2022-08-27T12:52:02.543Z,3.97
2022-08-27T12:53:05.518Z,3.86
2022-08-27T12:54:08.712Z,4.34
2022-08-27T12:55:11.579Z,4.06
2022-08-27T12:56:14.564Z,4.15
2022-08-27T12:57:17.627Z,4.51
2022-08-27T12:58:20.816Z,5.25
2022-08-27T12:59:23.790Z,5.27
2022-08-27T13:00:27.067Z,4.59
2022-08-27T13:01:30.030Z,4.97
2022-08-27T13:02:32.827Z,4.47
2022-08-27T13:03:35.709Z,5.05
2022-08-27T13:04:38.885Z,5.83
2022-08-27T13:05:42.182Z,5.75
2022-08-27T13:06:44.937Z,4.80
2022-08-27T13:07:48.126Z,5.16
2022-08-27T13:08:51.324Z,4.98
2022-08-27T13:09:57.393Z,4.63
2022-08-27T13:10:59.405Z,5.35
2022-08-27T13:12:02.286Z,5.86
2022-08-27T13:13:05.569Z,5.34
2022-08-27T13:14:08.649Z,6.48
2022-08-27T13:15:11.625Z,6.39
2022-08-27T13:16:15.963Z,6.26
2022-08-27T13:17:18.702Z,6.05
2022-08-27T13:18:21.578Z,5.71
2022-08-27T13:19:24.868Z,6.50
2022-08-27T13:20:27.848Z,5.93
2022-08-27T13:21:30.912Z,5.23
2022-08-27T13:22:34.204Z,4.67
2022-08-27T13:23:37.188Z,5.02
2022-08-27T13:24:40.055Z,4.78
2022-08-27T13:25:42.925Z,5.23
2022-08-27T13:26:46.124Z,5.02
2022-08-27T13:27:49.088Z,5.95
2022-08-27T13:28:51.973Z,5.58
2022-08-27T13:29:55.150Z,5.38
2022-08-27T13:30:58.187Z,6.39
2022-08-27T13:32:01.614Z,7.34
2022-08-27T13:33:04.687Z,8.33
2022-08-27T13:34:08.073Z,8.39
2022-08-27T13:35:10.949Z,10.50
2022-08-27T13:36:14.329Z,10.04
2022-08-27T13:37:17.311Z,9.45
2022-08-27T13:38:20.185Z,10.59
2022-08-27T13:39:23.372Z,9.67
2022-08-27T13:40:26.484Z,9.06
2022-08-27T13:41:30.144Z,8.62
2022-08-27T13:42:33.753Z,8.26
2022-08-27T13:43:36.808Z,8.38
2022-08-27T13:44:40.422Z,8.44
2022-08-27T13:45:44.200Z,8.44
2022-08-27T13:46:47.638Z,8.78
2022-08-27T13:47:51.178Z,8.12
2022-08-27T13:48:54.153Z,7.38
2022-08-27T13:49:57.360Z,7.34
2022-08-27T13:51:00.108Z,7.99
2022-08-27T13:52:03.388Z,8.07
2022-08-27T13:53:06.067Z,7.19
2022-08-27T13:54:11.005Z,6.59
2022-08-27T13:55:13.763Z,6.46
2022-08-27T13:56:16.633Z,6.58
2022-08-27T13:57:19.834Z,6.38
2022-08-27T13:58:23.002Z,4.14
2022-08-27T13:59:27.508Z,3.49
2022-08-27T14:00:30.802Z,4.26
2022-08-27T14:01:34.373Z,4.42
2022-08-27T14:02:37.766Z,3.96
2022-08-27T14:03:41.577Z,3.85
2022-08-27T14:04:44.862Z,3.35
2022-08-27T14:05:48.255Z,3.25
2022-08-27T14:06:51.026Z,3.16
2022-08-27T14:07:53.991Z,3.47
2022-08-27T14:08:57.790Z,3.74
2022-08-27T14:10:00.867Z,5.01
2022-08-27T14:11:03.961Z,5.17
2022-08-27T14:12:06.720Z,5.16
2022-08-27T14:13:09.702Z,5.25